Main page
METAR-TAF:

METAR-TAF

Airports :

Lancaster Regional Airport

Lancaster, Texas, United States

latitude: 32-34-45N, longitude: 096-43-08W, elevation: 502 ft

Current weather observation

The report was made 43 minutes ago, at 18:15 UTC
Wind 12 mph from the South
Temperature 90°F
Humidity 56%
Pressure 29.86 in. Hg
Visibility: 10 miles
Scattered clouds at a height of 4000 ft
Scattered clouds at a height of 5000 ft

METAR: KLNC 171815Z AUTO 17010KT 10SM SCT040 SCT050 32/22 A2986 RMK AO2 T03240222

Time: 13:58 (18:58 UTC)


TAF: missing

Weather observations and forecasts of more than 4000 airports (METAR and TAF reports).

The available stations are represented by yellow and red dots on the map.

Hover mouse over dot to see the name of the station.

Then click to see weather observations and forecasts.

To change the map : click on the green buttons with a black cross to zoom in, on the green button with a dash to zoom out, or on the green arrows for adjacent maps.


METAR-TAF: